createdAt,value
2024-02-12T04:43:52.667Z,3.17
2024-02-12T04:46:57.506Z,3.50
2024-02-12T04:50:00.234Z,3.20
2024-02-12T04:53:03.200Z,2.72
2024-02-12T04:56:07.777Z,3.60
2024-02-12T04:59:13.224Z,3.58
2024-02-12T05:02:15.962Z,3.10
2024-02-12T05:05:19.564Z,3.05
2024-02-12T05:08:22.201Z,3.10
2024-02-12T05:14:29.943Z,3.05
2024-02-12T05:21:24.229Z,3.00
2024-02-12T05:24:28.494Z,3.60
2024-02-12T05:27:32.681Z,3.25
2024-02-12T05:30:35.619Z,3.22
2024-02-12T05:33:38.471Z,3.30
2024-02-12T05:36:43.193Z,3.28
2024-02-12T05:39:45.980Z,3.65
2024-02-12T05:42:49.023Z,3.42
2024-02-12T05:45:51.702Z,3.22
2024-02-12T05:48:55.296Z,3.47
2024-02-12T05:51:58.274Z,4.22
2024-02-12T05:55:01.260Z,3.42
2024-02-12T05:58:04.221Z,3.35
2024-02-12T06:01:07.119Z,3.53
2024-02-12T06:04:10.075Z,3.62
2024-02-12T06:07:13.243Z,3.10
2024-02-12T06:10:18.244Z,3.90
2024-02-12T06:13:21.263Z,2.92
2024-02-12T06:16:24.874Z,3.15
2024-02-12T06:22:30.386Z,2.87
2024-02-12T06:25:33.233Z,3.42
2024-02-12T06:31:43.610Z,3.58
2024-02-12T06:34:49.120Z,3.67
2024-02-12T06:37:53.331Z,2.80
2024-02-12T06:43:59.522Z,3.50
2024-02-12T06:47:02.738Z,2.80
2024-02-12T06:50:07.214Z,2.67
2024-02-12T06:53:10.549Z,3.05
2024-02-12T06:56:14.338Z,4.30
2024-02-12T06:59:17.571Z,3.37
2024-02-12T07:02:20.677Z,3.45
2024-02-12T07:05:24.120Z,3.05
2024-02-12T07:08:27.086Z,3.60
2024-02-12T07:14:32.476Z,3.45
2024-02-12T07:17:35.996Z,3.20
2024-02-12T07:20:41.238Z,3.58
2024-02-12T07:24:29.068Z,3.28
2024-02-12T07:28:25.067Z,3.55
2024-02-12T07:31:28.012Z,3.03
2024-02-12T07:34:33.328Z,3.25
2024-02-12T07:39:51.196Z,3.30
2024-02-12T11:55:41.966Z,3.00
2024-02-12T12:05:03.301Z,1.80
2024-02-12T12:08:08.055Z,1.95
2024-02-12T12:11:13.070Z,1.40
2024-02-12T12:14:16.735Z,1.70
2024-02-12T12:17:30.484Z,1.80
2024-02-12T12:20:36.975Z,1.52
2024-02-12T12:23:40.656Z,1.45
2024-02-12T12:26:44.570Z,1.40
2024-02-12T12:29:49.301Z,1.10
2024-02-12T12:32:52.959Z,1.73
2024-02-12T12:35:56.339Z,1.37
2024-02-12T12:39:00.097Z,1.33
2024-02-12T12:42:03.594Z,1.50
2024-02-12T12:45:11.987Z,1.08
2024-02-12T12:48:16.392Z,1.50
2024-02-12T12:51:19.625Z,1.30
2024-02-12T12:54:23.682Z,1.15
2024-02-12T12:57:26.917Z,1.10
2024-02-12T13:00:32.605Z,1.23
2024-02-12T13:03:35.495Z,1.23
2024-02-12T13:06:40.618Z,1.40
2024-02-12T13:09:43.291Z,1.30
2024-02-12T13:15:49.792Z,1.52
2024-02-12T13:18:54.205Z,1.60
2024-02-12T13:21:56.954Z,1.62
2024-02-12T13:25:07.650Z,1.60
2024-02-12T13:28:12.862Z,1.62
2024-02-12T13:31:16.463Z,1.83
2024-02-12T13:34:19.519Z,1.52
2024-02-12T13:37:23.328Z,1.45
2024-02-12T13:40:28.745Z,1.40
2024-02-12T13:43:32.407Z,1.35
2024-02-12T13:46:37.634Z,1.60
